createdAt,value
2022-12-14T00:00:32.341Z,53.13
2022-12-14T00:03:38.296Z,52.72
2022-12-14T00:06:44.428Z,52.54
2022-12-14T00:09:50.073Z,52.56
2022-12-14T00:12:56.042Z,52.23
2022-12-14T00:16:05.254Z,51.82
2022-12-14T00:19:13.584Z,51.85
2022-12-14T00:22:19.143Z,52.36
2022-12-14T00:25:24.949Z,52.24
2022-12-14T00:28:30.538Z,52.17
2022-12-14T00:31:36.621Z,51.86
2022-12-14T00:34:40.714Z,51.75
2022-12-14T00:37:49.002Z,51.74
2022-12-14T00:40:55.364Z,51.63
2022-12-14T00:44:00.837Z,51.29
2022-12-14T00:47:06.496Z,51.49
2022-12-14T00:50:29.653Z,51.58
2022-12-14T00:53:35.207Z,51.25
2022-12-14T00:56:40.757Z,51.00
2022-12-14T00:59:46.409Z,50.57
2022-12-14T01:02:52.061Z,50.32
2022-12-14T01:05:57.815Z,50.15
2022-12-14T01:09:03.603Z,50.12
2022-12-14T01:12:09.700Z,50.36
2022-12-14T01:15:13.849Z,50.46
2022-12-14T01:18:20.635Z,50.26
2022-12-14T01:21:27.442Z,50.22
2022-12-14T01:24:33.058Z,50.66
2022-12-14T01:27:38.710Z,51.06
2022-12-14T01:30:44.367Z,50.69
2022-12-14T01:33:50.464Z,50.87
2022-12-14T01:36:54.543Z,50.73
2022-12-14T01:40:00.803Z,50.73
2022-12-14T01:43:11.583Z,50.64
2022-12-14T01:46:22.699Z,50.41
2022-12-14T01:49:33.326Z,50.68
2022-12-14T01:52:42.256Z,51.05
2022-12-14T01:55:53.228Z,50.84
2022-12-14T01:59:03.081Z,50.78
2022-12-14T02:02:12.194Z,50.20
2022-12-14T02:05:19.605Z,49.95
2022-12-14T02:08:26.698Z,50.77
2022-12-14T02:11:40.739Z,50.35
2022-12-14T02:14:47.312Z,49.92
2022-12-14T02:17:52.963Z,49.56
2022-12-14T02:21:17.364Z,49.22
2022-12-14T02:24:48.813Z,48.87
2022-12-14T02:28:10.644Z,49.18
2022-12-14T02:31:21.662Z,49.37
2022-12-14T02:34:36.078Z,49.27
2022-12-14T02:37:49.257Z,49.28
2022-12-14T02:41:02.710Z,49.21
2022-12-14T02:44:21.908Z,49.27
2022-12-14T02:47:37.403Z,49.16
2022-12-14T02:50:52.157Z,49.18
2022-12-14T02:54:02.337Z,49.30
2022-12-14T02:57:13.623Z,49.28
2022-12-14T03:00:21.157Z,49.65
2022-12-14T03:03:27.061Z,49.70
2022-12-14T03:06:32.909Z,49.44
2022-12-14T03:09:38.665Z,49.36
2022-12-14T03:12:47.138Z,49.40
2022-12-14T03:15:59.363Z,49.75
2022-12-14T03:19:12.264Z,50.03
2022-12-14T03:22:21.915Z,50.06
2022-12-14T03:25:33.445Z,49.66
2022-12-14T03:28:45.920Z,49.88
2022-12-14T03:31:54.864Z,49.95
2022-12-14T03:35:02.698Z,50.57
2022-12-14T03:38:18.069Z,50.64
2022-12-14T03:41:30.886Z,50.37
2022-12-14T03:44:48.796Z,51.23
2022-12-14T03:48:09.532Z,51.99
2022-12-14T03:51:21.431Z,52.08
2022-12-14T03:54:37.445Z,51.37
2022-12-14T03:57:56.898Z,50.52
2022-12-14T04:01:12.052Z,50.17
2022-12-14T04:04:23.153Z,50.01
2022-12-14T04:07:38.950Z,50.31
2022-12-14T04:11:03.542Z,50.19
2022-12-14T04:14:32.566Z,50.29
2022-12-14T04:17:59.181Z,50.45
2022-12-14T04:21:10.466Z,50.47
2022-12-14T04:24:39.150Z,50.60
2022-12-14T04:27:50.544Z,50.41
2022-12-14T04:30:58.448Z,50.50
2022-12-14T04:34:07.067Z,50.56
2022-12-14T04:37:16.869Z,50.64
2022-12-14T04:40:25.993Z,50.45
2022-12-14T04:43:36.518Z,51.41
2022-12-14T04:46:44.037Z,51.50
2022-12-14T04:49:54.580Z,50.92
2022-12-14T04:53:06.578Z,50.79
2022-12-14T04:56:20.630Z,50.96
2022-12-14T04:59:27.366Z,51.16
2022-12-14T05:02:46.191Z,51.64
2022-12-14T05:06:03.490Z,52.08
2022-12-14T05:09:22.242Z,52.39
2022-12-14T05:12:36.298Z,52.76
2022-12-14T05:15:45.389Z,52.80
2022-12-14T05:18:51.478Z,52.78
2022-12-14T05:21:57.466Z,52.60
2022-12-14T05:25:01.467Z,52.44
2022-12-14T05:28:07.733Z,52.27
2022-12-14T05:31:13.555Z,52.24
2022-12-14T05:34:19.429Z,52.09
2022-12-14T05:37:25.098Z,52.19
2022-12-14T05:40:30.748Z,52.15
2022-12-14T05:43:36.601Z,52.26
2022-12-14T05:46:42.257Z,52.25
2022-12-14T05:49:49.286Z,51.99
2022-12-14T05:52:55.926Z,51.78
2022-12-14T05:56:01.567Z,51.98
2022-12-14T05:59:07.322Z,52.08
2022-12-14T06:02:13.100Z,52.09
2022-12-14T06:05:19.098Z,51.94
2022-12-14T06:08:24.685Z,51.56
2022-12-14T06:11:30.340Z,51.77
2022-12-14T06:14:35.988Z,51.86
2022-12-14T06:17:45.397Z,52.14
2022-12-14T06:20:51.082Z,52.05
2022-12-14T06:23:57.637Z,52.16
2022-12-14T06:27:03.511Z,52.64
2022-12-14T06:30:12.153Z,52.79
2022-12-14T06:33:17.784Z,52.44
2022-12-14T06:36:24.974Z,52.47
2022-12-14T06:39:30.555Z,52.54
2022-12-14T06:42:36.172Z,52.34
2022-12-14T06:45:42.031Z,52.78
2022-12-14T06:48:52.157Z,52.66
2022-12-14T06:51:57.735Z,52.57
2022-12-14T06:55:03.388Z,52.63
2022-12-14T06:58:11.860Z,52.81
2022-12-14T07:01:19.472Z,52.55
2022-12-14T07:04:25.155Z,52.71
2022-12-14T07:07:32.856Z,53.84
2022-12-14T07:10:38.381Z,52.86
2022-12-14T07:13:43.950Z,52.56
2022-12-14T07:16:49.439Z,52.64
2022-12-14T07:19:55.875Z,52.83
2022-12-14T07:23:01.421Z,52.56
2022-12-14T07:26:09.165Z,52.88
2022-12-14T07:29:16.898Z,52.88
2022-12-14T07:32:22.570Z,53.05
2022-12-14T07:35:28.123Z,53.25
2022-12-14T07:38:33.873Z,53.21
2022-12-14T07:41:39.401Z,53.44
2022-12-14T07:44:45.386Z,53.53
2022-12-14T07:47:51.039Z,53.52
2022-12-14T07:51:01.932Z,53.47
2022-12-14T07:54:08.858Z,53.54
2022-12-14T07:57:14.856Z,53.69
2022-12-14T08:00:19.543Z,53.47
2022-12-14T08:03:25.448Z,53.37
2022-12-14T08:06:31.977Z,53.62
2022-12-14T08:09:37.566Z,53.72
2022-12-14T08:12:43.114Z,53.45
2022-12-14T08:15:48.807Z,53.63
2022-12-14T08:18:55.959Z,53.97
2022-12-14T08:22:01.604Z,54.21
2022-12-14T08:25:08.889Z,54.25
2022-12-14T08:28:14.445Z,54.09
2022-12-14T08:31:21.884Z,54.09
2022-12-14T08:34:27.473Z,54.41
2022-12-14T08:37:33.142Z,54.92
2022-12-14T08:40:39.609Z,55.42
2022-12-14T08:43:45.263Z,55.38
2022-12-14T08:46:50.938Z,55.90
2022-12-14T08:49:56.976Z,56.36
2022-12-14T08:53:02.735Z,56.29
2022-12-14T08:56:11.561Z,56.23
2022-12-14T08:59:37.137Z,56.33
2022-12-14T09:02:41.384Z,56.13
2022-12-14T09:05:47.250Z,55.96
2022-12-14T09:08:53.208Z,55.84
2022-12-14T09:12:03.476Z,56.16
2022-12-14T09:15:11.908Z,56.15
2022-12-14T09:18:17.395Z,55.92
2022-12-14T09:21:23.449Z,55.66
2022-12-14T09:24:29.152Z,55.53
2022-12-14T09:27:34.801Z,54.93
2022-12-14T09:30:40.499Z,54.86
2022-12-14T09:33:46.314Z,55.21
2022-12-14T09:36:53.155Z,55.52
2022-12-14T09:39:58.840Z,55.41
2022-12-14T09:43:07.193Z,55.15
2022-12-14T09:46:28.471Z,55.35
2022-12-14T09:49:39.836Z,55.50
2022-12-14T09:52:50.510Z,55.23
2022-12-14T09:55:59.078Z,55.30
2022-12-14T09:59:05.245Z,55.56
2022-12-14T10:02:33.162Z,55.55
2022-12-14T10:06:03.420Z,55.65
2022-12-14T10:09:21.185Z,55.66
2022-12-14T10:12:43.287Z,55.48
2022-12-14T10:16:01.098Z,55.46
2022-12-14T10:19:17.321Z,55.71
2022-12-14T10:22:22.771Z,55.81
2022-12-14T10:25:30.985Z,55.58
2022-12-14T10:28:46.059Z,55.31
2022-12-14T10:32:00.476Z,54.90
2022-12-14T10:35:16.192Z,55.30
2022-12-14T10:38:32.230Z,55.95
2022-12-14T10:41:49.587Z,55.31
2022-12-14T10:45:39.137Z,55.18
2022-12-14T10:48:40.977Z,55.19
2022-12-14T10:51:51.120Z,55.12
2022-12-14T10:55:00.109Z,55.06
2022-12-14T10:58:06.107Z,54.74
2022-12-14T11:01:16.105Z,54.57
2022-12-14T11:04:31.955Z,54.61
2022-12-14T11:07:43.392Z,55.14
2022-12-14T11:10:49.666Z,54.77
2022-12-14T11:13:55.109Z,54.86
2022-12-14T11:17:00.914Z,55.35
2022-12-14T11:20:19.626Z,55.61
2022-12-14T11:23:29.520Z,55.68
2022-12-14T11:26:39.309Z,55.91
2022-12-14T11:29:49.482Z,56.41
2022-12-14T11:32:55.412Z,56.93
2022-12-14T11:36:01.334Z,56.76
2022-12-14T11:39:19.895Z,55.71
2022-12-14T11:42:26.764Z,55.15
2022-12-14T11:45:35.281Z,55.24
2022-12-14T11:48:50.873Z,55.11
2022-12-14T11:52:07.589Z,56.20
2022-12-14T11:55:21.571Z,56.74
2022-12-14T11:58:33.455Z,56.54
2022-12-14T12:01:39.511Z,56.49
2022-12-14T12:04:49.243Z,56.76
2022-12-14T12:07:57.822Z,57.47
2022-12-14T12:11:06.253Z,57.35
2022-12-14T12:14:26.679Z,57.26
2022-12-14T12:17:44.460Z,56.96
2022-12-14T12:20:55.237Z,56.09
2022-12-14T12:24:07.357Z,55.30
2022-12-14T12:27:17.036Z,55.62
2022-12-14T12:30:29.339Z,55.64
2022-12-14T12:33:42.676Z,55.28
2022-12-14T12:37:24.241Z,55.28
2022-12-14T12:40:20.531Z,55.07
2022-12-14T12:43:31.796Z,55.93
2022-12-14T12:47:07.140Z,55.78
2022-12-14T12:50:18.707Z,55.60
2022-12-14T12:53:31.550Z,55.61
2022-12-14T12:56:44.569Z,54.84
2022-12-14T12:59:57.632Z,54.38
2022-12-14T13:03:10.126Z,53.15
2022-12-14T13:06:23.102Z,52.86
2022-12-14T13:09:42.010Z,53.51
2022-12-14T13:12:51.800Z,53.70
2022-12-14T13:16:04.387Z,54.28
2022-12-14T13:22:49.548Z,55.29
2022-12-14T13:26:13.390Z,56.92
2022-12-14T13:29:39.152Z,57.35
2022-12-14T13:32:57.542Z,57.61
2022-12-14T13:36:39.403Z,57.98
2022-12-14T13:40:25.761Z,58.11
2022-12-14T13:43:43.237Z,58.25
2022-12-14T13:46:57.500Z,57.78
2022-12-14T13:50:49.847Z,57.97
2022-12-14T13:53:37.083Z,58.10
2022-12-14T13:56:42.815Z,58.20
2022-12-14T13:59:53.172Z,58.33
2022-12-14T14:02:58.875Z,58.33
2022-12-14T14:06:16.048Z,59.11
2022-12-14T14:10:01.590Z,58.56
2022-12-14T14:13:45.481Z,59.01
2022-12-14T14:16:58.708Z,59.88
2022-12-14T14:20:27.608Z,60.01
2022-12-14T14:23:36.031Z,60.65
2022-12-14T14:26:43.786Z,61.38
2022-12-14T14:29:51.259Z,61.90
2022-12-14T14:33:13.526Z,62.17
2022-12-14T14:36:27.509Z,62.46
2022-12-14T14:39:56.601Z,62.53
2022-12-14T14:43:07.683Z,62.61
2022-12-14T14:46:19.156Z,63.65
2022-12-14T14:49:32.712Z,63.05
2022-12-14T14:53:02.439Z,62.40
2022-12-14T14:56:38.438Z,62.73
2022-12-14T14:59:58.643Z,62.83
2022-12-14T15:03:06.584Z,63.32
2022-12-14T15:06:17.395Z,63.72
2022-12-14T15:09:31.002Z,63.74
2022-12-14T15:12:42.904Z,63.84
2022-12-14T15:15:56.613Z,64.19
2022-12-14T15:19:24.792Z,64.50
2022-12-14T15:22:32.523Z,64.74
2022-12-14T15:25:38.275Z,64.96
2022-12-14T15:28:43.926Z,64.82
2022-12-14T15:31:57.602Z,64.60
2022-12-14T15:35:10.547Z,65.42
2022-12-14T15:38:24.430Z,65.10
2022-12-14T15:41:33.169Z,65.47
2022-12-14T15:44:40.341Z,65.42
2022-12-14T15:47:49.146Z,64.97
2022-12-14T15:50:57.033Z,64.81
2022-12-14T15:54:05.899Z,64.84
2022-12-14T15:57:18.877Z,64.47
2022-12-14T16:00:24.692Z,63.98
2022-12-14T16:03:36.082Z,62.85
2022-12-14T16:06:44.325Z,63.40
2022-12-14T16:09:58.932Z,63.81
2022-12-14T16:13:07.816Z,63.68
2022-12-14T16:16:16.684Z,63.40
2022-12-14T16:19:28.624Z,62.53
2022-12-14T16:22:39.467Z,63.24
2022-12-14T16:25:55.664Z,63.73
2022-12-14T16:29:20.309Z,63.56
2022-12-14T16:32:26.335Z,63.46
2022-12-14T16:35:35.038Z,63.33
2022-12-14T16:38:56.130Z,63.55
2022-12-14T16:42:04.183Z,63.87
2022-12-14T16:45:37.047Z,66.42
2022-12-14T16:48:45.854Z,64.12
2022-12-14T16:52:07.702Z,62.84
2022-12-14T16:55:17.049Z,62.39
2022-12-14T16:58:23.113Z,62.67
2022-12-14T17:01:29.665Z,62.56
2022-12-14T17:04:37.768Z,62.43
2022-12-14T17:07:43.651Z,62.23
2022-12-14T17:10:49.404Z,62.23
2022-12-14T17:13:54.893Z,62.01
2022-12-14T17:17:02.981Z,61.73
2022-12-14T17:20:16.426Z,61.87
2022-12-14T17:23:22.624Z,62.16
2022-12-14T17:26:30.970Z,62.37
2022-12-14T17:29:36.524Z,62.40
2022-12-14T17:32:42.417Z,62.54
2022-12-14T17:35:47.944Z,62.73
2022-12-14T17:38:53.478Z,62.92
2022-12-14T17:41:59.132Z,63.26
2022-12-14T17:45:05.257Z,63.30
2022-12-14T17:48:13.766Z,63.03
2022-12-14T17:51:25.358Z,63.12
2022-12-14T17:54:31.262Z,63.33
2022-12-14T17:57:37.060Z,63.25
2022-12-14T18:01:01.871Z,63.27
2022-12-14T18:04:08.735Z,63.67
2022-12-14T18:07:14.552Z,63.57
2022-12-14T18:10:20.365Z,63.38
2022-12-14T18:13:27.534Z,63.25
2022-12-14T18:16:33.726Z,63.18
2022-12-14T18:19:39.773Z,63.12
2022-12-14T18:22:49.650Z,63.39
2022-12-14T18:25:58.003Z,63.56
2022-12-14T18:29:03.639Z,63.58
2022-12-14T18:32:11.335Z,63.47
2022-12-14T18:35:20.537Z,63.48
2022-12-14T18:38:26.784Z,63.63
2022-12-14T18:41:31.368Z,63.65
2022-12-14T18:44:38.054Z,64.02
2022-12-14T18:47:43.890Z,64.13
2022-12-14T18:50:50.518Z,64.12
2022-12-14T18:53:58.386Z,64.12
2022-12-14T18:57:04.056Z,64.01
2022-12-14T19:00:13.081Z,64.13
2022-12-14T19:03:19.045Z,64.12
2022-12-14T19:09:51.822Z,63.89
2022-12-14T19:12:59.037Z,63.93
2022-12-14T19:16:04.930Z,63.87
2022-12-14T19:19:10.632Z,63.89
2022-12-14T19:22:16.385Z,64.00
2022-12-14T19:25:23.777Z,64.31
2022-12-14T19:28:33.427Z,64.57
2022-12-14T19:31:39.332Z,64.73
2022-12-14T19:34:45.032Z,64.87
2022-12-14T19:37:51.297Z,64.82
2022-12-14T19:41:02.717Z,65.10
2022-12-14T19:44:08.541Z,65.36
2022-12-14T19:47:14.397Z,65.21
2022-12-14T19:50:20.402Z,65.04
2022-12-14T19:53:26.154Z,64.97
2022-12-14T19:56:32.070Z,65.06
2022-12-14T19:59:37.822Z,65.14
2022-12-14T20:02:43.670Z,65.08
2022-12-14T20:05:58.622Z,65.31
2022-12-14T20:09:06.671Z,65.17
2022-12-14T20:12:12.216Z,65.09
2022-12-14T20:15:18.017Z,65.08
2022-12-14T20:18:25.158Z,65.12
2022-12-14T20:21:30.799Z,65.17
2022-12-14T20:24:37.198Z,65.27
2022-12-14T20:27:42.921Z,65.52
2022-12-14T20:30:49.392Z,65.44
2022-12-14T20:33:55.409Z,65.40
2022-12-14T20:37:01.164Z,65.20
2022-12-14T20:40:08.931Z,64.91
2022-12-14T20:43:14.670Z,64.90
2022-12-14T20:46:34.904Z,65.02
2022-12-14T20:49:41.013Z,65.54
2022-12-14T20:52:46.672Z,65.54
2022-12-14T20:55:54.985Z,66.13
2022-12-14T20:59:00.642Z,66.45
2022-12-14T21:02:06.344Z,66.90
2022-12-14T21:05:12.452Z,66.81
2022-12-14T21:08:18.307Z,66.71
2022-12-14T21:11:42.767Z,66.36
2022-12-14T21:14:49.347Z,66.49
2022-12-14T21:17:55.027Z,66.41
2022-12-14T21:21:06.207Z,66.37
2022-12-14T21:24:25.729Z,66.28
2022-12-14T21:27:40.805Z,66.42
2022-12-14T21:30:46.667Z,66.49
2022-12-14T21:33:52.674Z,66.50
2022-12-14T21:36:59.047Z,66.18
2022-12-14T21:40:05.239Z,65.86
2022-12-14T21:43:10.963Z,65.61
2022-12-14T21:46:17.170Z,65.61
2022-12-14T21:49:23.494Z,65.46
2022-12-14T21:52:28.331Z,65.34
2022-12-14T21:55:33.980Z,65.37
2022-12-14T21:58:39.630Z,64.90
2022-12-14T22:01:45.718Z,64.64
2022-12-14T22:04:56.170Z,64.65
2022-12-14T22:08:02.423Z,64.44
2022-12-14T22:11:08.484Z,64.29
2022-12-14T22:14:15.571Z,64.27
2022-12-14T22:17:21.322Z,64.18
2022-12-14T22:20:26.975Z,64.20
2022-12-14T22:23:35.945Z,64.17
2022-12-14T22:26:45.729Z,64.05
2022-12-14T22:29:51.217Z,64.00
2022-12-14T22:32:56.851Z,64.06
2022-12-14T22:36:02.709Z,63.92
2022-12-14T22:39:08.361Z,63.81
2022-12-14T22:42:13.917Z,63.78
2022-12-14T22:45:19.562Z,63.88
2022-12-14T22:48:25.214Z,63.74
2022-12-14T22:51:30.713Z,63.70
2022-12-14T22:54:38.262Z,63.61
2022-12-14T22:57:47.443Z,63.62
2022-12-14T23:00:56.974Z,63.52
2022-12-14T23:04:03.515Z,63.45
2022-12-14T23:07:09.368Z,63.36
2022-12-14T23:10:32.947Z,63.37
2022-12-14T23:13:56.509Z,63.64
2022-12-14T23:17:20.595Z,63.68
2022-12-14T23:20:44.063Z,63.77
2022-12-14T23:24:07.636Z,63.65
2022-12-14T23:27:31.002Z,63.64
2022-12-14T23:30:54.931Z,63.54
2022-12-14T23:34:18.349Z,63.72
2022-12-14T23:37:42.545Z,63.55
2022-12-14T23:41:06.006Z,63.56
2022-12-14T23:44:29.476Z,63.60
2022-12-14T23:47:52.741Z,63.55
2022-12-14T23:51:16.310Z,63.52
2022-12-14T23:54:39.985Z,63.63
2022-12-14T23:58:03.047Z,63.61
